createdAt,value
2022-09-22T00:00:21.618Z,4.83
2022-09-22T00:01:28.942Z,2.63
2022-09-22T00:02:30.706Z,5.33
2022-09-22T00:03:43.044Z,3.57
2022-09-22T00:04:44.437Z,5.43
2022-09-22T00:05:46.241Z,4.83
2022-09-22T00:06:51.594Z,2.27
2022-09-22T00:07:54.244Z,2.70
2022-09-22T00:09:03.313Z,3.57
2022-09-22T00:10:05.185Z,3.27
2022-09-22T00:11:18.644Z,2.30
2022-09-22T00:12:22.568Z,2.17
2022-09-22T00:13:24.026Z,2.23
2022-09-22T00:14:28.109Z,2.30
2022-09-22T00:15:30.331Z,2.10
2022-09-22T00:16:42.599Z,5.13
2022-09-22T00:17:44.795Z,1.70
2022-09-22T00:18:46.431Z,2.13
2022-09-22T00:19:48.018Z,3.17
2022-09-22T00:20:49.899Z,1.50
2022-09-22T00:21:51.928Z,1.87
2022-09-22T00:22:53.366Z,1.90
2022-09-22T00:23:55.225Z,1.73
2022-09-22T00:24:57.008Z,1.90
2022-09-22T00:25:59.710Z,2.03
2022-09-22T00:27:01.647Z,1.77
2022-09-22T00:28:04.586Z,1.80
2022-09-22T00:29:10.331Z,1.67
2022-09-22T00:30:13.098Z,1.63
2022-09-22T00:31:22.166Z,1.80
2022-09-22T00:32:24.106Z,1.83
2022-09-22T00:33:26.020Z,1.60
2022-09-22T00:34:28.490Z,2.10
2022-09-22T00:35:30.203Z,1.60
2022-09-22T00:36:32.002Z,1.80
2022-09-22T00:37:33.902Z,1.60
2022-09-22T00:38:36.885Z,1.50
2022-09-22T00:39:38.613Z,1.60
2022-09-22T00:40:40.060Z,1.80
2022-09-22T00:41:45.885Z,1.90
2022-09-22T00:42:47.495Z,1.67
2022-09-22T00:43:51.631Z,1.80
2022-09-22T00:44:53.035Z,2.53
2022-09-22T00:46:12.389Z,1.93
2022-09-22T00:47:26.032Z,2.00
2022-09-22T00:48:31.706Z,1.80
2022-09-22T00:50:05.881Z,1.90
2022-09-22T00:51:10.819Z,1.93
2022-09-22T00:52:15.852Z,1.63
2022-09-22T00:53:19.678Z,1.70
2022-09-22T00:54:21.180Z,1.60
2022-09-22T00:55:45.802Z,1.90
2022-09-22T00:57:07.469Z,2.03
2022-09-22T00:58:13.624Z,1.83
2022-09-22T00:59:20.034Z,2.00
2022-09-22T01:00:21.852Z,1.67
2022-09-22T01:01:23.405Z,1.50
2022-09-22T01:02:25.472Z,1.67
2022-09-22T01:03:30.090Z,1.47
2022-09-22T01:04:31.903Z,1.57
2022-09-22T01:05:34.127Z,1.67
2022-09-22T01:06:39.583Z,2.00
2022-09-22T01:07:42.726Z,1.60
2022-09-22T01:08:45.149Z,1.90
2022-09-22T01:09:46.594Z,1.53
2022-09-22T01:10:49.371Z,2.00
2022-09-22T01:11:50.898Z,2.17
2022-09-22T01:13:10.376Z,2.00
2022-09-22T01:14:31.130Z,1.60
2022-09-22T01:16:03.581Z,2.20
2022-09-22T01:17:35.548Z,2.33
2022-09-22T01:19:07.093Z,1.70
2022-09-22T01:20:12.577Z,1.40
2022-09-22T01:21:43.123Z,1.83
2022-09-22T01:22:59.384Z,1.57
2022-09-22T01:24:26.706Z,1.60
2022-09-22T01:25:49.811Z,2.00
2022-09-22T01:27:07.091Z,1.73
2022-09-22T01:28:23.360Z,1.60
2022-09-22T01:29:48.922Z,1.53
2022-09-22T01:31:17.007Z,1.57
2022-09-22T01:32:32.378Z,1.50
2022-09-22T01:33:43.017Z,1.40
2022-09-22T01:34:58.273Z,1.47
2022-09-22T01:36:07.009Z,1.60
2022-09-22T01:37:53.813Z,2.13
2022-09-22T01:39:13.833Z,1.77
2022-09-22T01:40:38.637Z,1.50
2022-09-22T01:41:51.610Z,1.60
2022-09-22T01:43:16.381Z,1.67
2022-09-22T01:44:46.020Z,1.40
2022-09-22T01:45:48.734Z,2.10
2022-09-22T01:46:57.639Z,1.50
2022-09-22T01:48:09.679Z,1.70
2022-09-22T01:49:14.641Z,1.50
2022-09-22T01:50:34.320Z,1.83
2022-09-22T01:51:44.787Z,2.00
2022-09-22T01:52:48.364Z,1.80
2022-09-22T01:53:58.705Z,1.60
2022-09-22T01:55:09.044Z,1.97
2022-09-22T01:56:13.374Z,1.60
2022-09-22T01:57:30.537Z,1.80
2022-09-22T01:58:40.199Z,1.57
2022-09-22T01:59:43.745Z,1.80
2022-09-22T02:00:52.012Z,1.93
2022-09-22T02:02:17.272Z,1.80
2022-09-22T02:03:24.764Z,1.20
2022-09-22T02:04:32.241Z,1.80
2022-09-22T02:05:40.285Z,1.47
2022-09-22T02:07:00.748Z,1.80
2022-09-22T02:08:07.442Z,1.60
2022-09-22T02:09:15.645Z,1.50
2022-09-22T02:10:22.717Z,1.60
2022-09-22T02:11:24.323Z,1.57
2022-09-22T02:12:25.970Z,1.50
2022-09-22T02:13:27.903Z,1.60
2022-09-22T02:14:30.428Z,1.57
2022-09-22T02:15:50.810Z,1.50
2022-09-22T02:16:53.441Z,1.63
2022-09-22T02:17:58.876Z,1.57
2022-09-22T02:19:13.643Z,1.67
2022-09-22T02:20:16.725Z,1.87
2022-09-22T02:21:19.605Z,1.60
2022-09-22T02:22:21.487Z,1.70
2022-09-22T02:23:22.927Z,1.30
2022-09-22T02:24:27.211Z,1.40
2022-09-22T02:25:29.336Z,1.70
2022-09-22T02:26:35.507Z,1.40
2022-09-22T02:27:37.050Z,1.60
2022-09-22T02:28:42.489Z,1.60
2022-09-22T02:29:48.653Z,1.40
2022-09-22T02:31:17.470Z,1.67
2022-09-22T02:32:16.941Z,1.60
2022-09-22T02:33:22.170Z,1.67
2022-09-22T02:34:24.712Z,1.63
2022-09-22T02:35:30.486Z,1.70
2022-09-22T02:37:05.676Z,1.60
2022-09-22T02:38:30.633Z,1.50
2022-09-22T02:39:37.628Z,1.50
2022-09-22T02:40:51.386Z,1.60
2022-09-22T02:42:14.774Z,1.70
2022-09-22T02:43:36.707Z,1.63
2022-09-22T02:45:17.200Z,1.50
2022-09-22T02:46:41.345Z,1.60
2022-09-22T02:47:57.872Z,1.63
2022-09-22T02:49:05.693Z,1.70
2022-09-22T02:50:10.590Z,1.50
2022-09-22T02:51:14.149Z,1.90
2022-09-22T02:52:20.820Z,1.67
2022-09-22T02:53:22.530Z,1.70
2022-09-22T02:54:24.063Z,1.70
2022-09-22T02:55:25.453Z,1.90
2022-09-22T02:56:26.901Z,1.70
2022-09-22T02:57:28.362Z,1.80
2022-09-22T02:58:29.823Z,1.60
2022-09-22T02:59:31.754Z,1.60
2022-09-22T03:00:33.415Z,1.70
2022-09-22T03:01:35.307Z,1.50
2022-09-22T03:02:37.594Z,1.60
2022-09-22T03:03:39.435Z,1.60
2022-09-22T03:04:40.987Z,1.60
2022-09-22T03:05:42.698Z,1.60
2022-09-22T03:06:44.142Z,1.60
2022-09-22T03:07:45.939Z,1.60
2022-09-22T03:08:47.528Z,1.50
2022-09-22T03:09:49.203Z,1.60
2022-09-22T03:10:50.730Z,1.60
2022-09-22T03:11:52.131Z,1.60
2022-09-22T03:13:14.875Z,1.67
2022-09-22T03:14:15.286Z,1.60
2022-09-22T03:15:16.937Z,1.70
2022-09-22T03:16:18.614Z,1.60
2022-09-22T03:17:20.130Z,1.80
2022-09-22T03:18:21.936Z,1.57
2022-09-22T03:19:23.364Z,1.60
2022-09-22T03:20:24.790Z,1.70
2022-09-22T03:21:26.722Z,1.90
2022-09-22T03:22:28.640Z,1.60
2022-09-22T03:23:30.602Z,1.53
2022-09-22T03:24:32.354Z,1.67
2022-09-22T03:25:34.028Z,1.80
2022-09-22T03:26:35.557Z,1.83
2022-09-22T03:27:38.065Z,1.73
2022-09-22T03:28:39.520Z,1.63
2022-09-22T03:29:41.559Z,1.70
2022-09-22T03:30:43.125Z,1.83
2022-09-22T03:31:44.561Z,1.50
2022-09-22T03:32:45.976Z,1.60
2022-09-22T03:33:51.983Z,1.60
2022-09-22T03:34:54.725Z,1.60
2022-09-22T03:35:56.252Z,1.60
2022-09-22T03:36:57.668Z,1.40
2022-09-22T03:37:59.134Z,1.60
2022-09-22T03:39:00.852Z,1.70
2022-09-22T03:40:03.996Z,2.00
2022-09-22T03:41:05.878Z,1.70
2022-09-22T03:42:07.638Z,1.70
2022-09-22T03:43:13.044Z,1.50
2022-09-22T03:44:18.184Z,1.80
2022-09-22T03:45:19.661Z,1.50
2022-09-22T03:46:21.304Z,2.00
2022-09-22T03:47:22.798Z,1.70
2022-09-22T03:48:25.717Z,1.53
2022-09-22T03:49:27.508Z,1.90
2022-09-22T03:50:29.224Z,1.73
2022-09-22T03:51:31.017Z,1.60
2022-09-22T03:52:33.464Z,1.70
2022-09-22T03:53:35.986Z,1.70
2022-09-22T03:54:37.568Z,1.77
2022-09-22T03:55:39.322Z,1.63
2022-09-22T03:56:40.761Z,1.40
2022-09-22T03:57:43.840Z,1.50
2022-09-22T03:58:45.869Z,2.10
2022-09-22T03:59:47.649Z,1.63
2022-09-22T04:00:50.014Z,1.70
2022-09-22T04:01:54.759Z,1.67
2022-09-22T04:02:59.440Z,1.80
2022-09-22T04:04:01.397Z,1.63
2022-09-22T04:05:02.811Z,1.73
2022-09-22T04:06:06.589Z,1.73
2022-09-22T04:07:08.083Z,1.60
2022-09-22T04:08:09.765Z,1.90
2022-09-22T04:09:11.448Z,1.77
2022-09-22T04:10:13.436Z,1.60
2022-09-22T04:11:15.043Z,1.80
2022-09-22T04:12:16.456Z,1.53
2022-09-22T04:13:18.555Z,1.70
2022-09-22T04:14:20.060Z,2.00
2022-09-22T04:15:21.488Z,1.73
2022-09-22T04:16:23.163Z,1.90
2022-09-22T04:17:24.807Z,2.00
2022-09-22T04:18:26.764Z,1.70
2022-09-22T04:19:28.780Z,1.73
2022-09-22T04:20:30.346Z,1.40
2022-09-22T04:21:32.290Z,1.50
2022-09-22T04:22:34.391Z,1.70
2022-09-22T04:23:36.144Z,1.50
2022-09-22T04:24:37.656Z,1.77
2022-09-22T04:25:39.721Z,1.77
2022-09-22T04:26:56.388Z,1.90
2022-09-22T04:28:05.733Z,1.57
2022-09-22T04:29:07.392Z,1.50
2022-09-22T04:30:09.746Z,1.63
2022-09-22T04:31:11.280Z,1.53
2022-09-22T04:32:14.597Z,1.63
2022-09-22T04:33:17.157Z,1.70
2022-09-22T04:34:18.660Z,1.80
2022-09-22T04:35:20.158Z,1.90
2022-09-22T04:36:21.762Z,1.60
2022-09-22T04:37:23.276Z,1.80
2022-09-22T04:38:24.931Z,1.70
2022-09-22T04:39:28.720Z,1.60
2022-09-22T04:40:30.871Z,1.70
2022-09-22T04:41:32.324Z,1.60
2022-09-22T04:42:33.704Z,1.80
2022-09-22T04:43:35.221Z,2.03
2022-09-22T04:44:37.314Z,1.87
2022-09-22T04:45:39.899Z,2.00
2022-09-22T04:46:45.943Z,1.63
2022-09-22T04:47:49.851Z,1.40
2022-09-22T04:48:51.302Z,1.83
2022-09-22T04:49:52.810Z,1.77
2022-09-22T04:50:54.248Z,1.60
2022-09-22T04:51:56.083Z,2.03
2022-09-22T04:52:58.136Z,1.70
2022-09-22T04:54:00.238Z,1.87
2022-09-22T04:55:01.821Z,2.10
2022-09-22T04:56:03.271Z,1.97
2022-09-22T04:57:04.850Z,1.73
2022-09-22T04:58:07.778Z,1.93
2022-09-22T04:59:09.752Z,1.50
2022-09-22T05:00:11.590Z,1.73
2022-09-22T05:01:13.170Z,1.80
2022-09-22T05:02:14.767Z,1.87
2022-09-22T05:03:21.370Z,1.43
2022-09-22T05:04:23.633Z,1.80
2022-09-22T05:05:25.118Z,1.60
2022-09-22T05:06:27.207Z,1.50
2022-09-22T05:07:28.779Z,1.30
2022-09-22T05:08:30.297Z,1.80
2022-09-22T05:09:31.851Z,1.70
2022-09-22T05:10:36.842Z,1.50
2022-09-22T05:11:38.374Z,1.70
2022-09-22T05:12:44.289Z,1.40
2022-09-22T05:13:46.382Z,1.33
2022-09-22T05:14:48.803Z,1.43
2022-09-22T05:15:50.480Z,1.47
2022-09-22T05:16:52.439Z,1.57
2022-09-22T05:17:55.503Z,1.40
2022-09-22T05:18:57.342Z,1.57
2022-09-22T05:19:59.330Z,1.80
2022-09-22T05:21:01.976Z,1.40
2022-09-22T05:22:03.864Z,1.80
2022-09-22T05:23:07.695Z,1.53
2022-09-22T05:24:09.472Z,1.70
2022-09-22T05:25:13.593Z,1.60
2022-09-22T05:26:15.093Z,1.20
2022-09-22T05:27:16.630Z,1.90
2022-09-22T05:28:18.050Z,1.30
2022-09-22T05:29:28.338Z,1.30
2022-09-22T05:30:29.919Z,1.70
2022-09-22T05:31:31.432Z,1.50
2022-09-22T05:32:32.982Z,1.43
2022-09-22T05:33:34.557Z,1.50
2022-09-22T05:34:36.739Z,1.67
2022-09-22T05:35:38.157Z,1.90
2022-09-22T05:36:39.776Z,1.93
2022-09-22T05:37:45.615Z,1.53
2022-09-22T05:38:47.147Z,1.60
2022-09-22T05:39:49.068Z,1.53
2022-09-22T05:40:50.541Z,1.50
2022-09-22T05:41:52.217Z,1.40
2022-09-22T05:42:54.346Z,1.30
2022-09-22T05:43:55.835Z,1.70
2022-09-22T05:44:57.290Z,1.50
2022-09-22T05:45:58.705Z,1.60
2022-09-22T05:47:00.175Z,1.50
2022-09-22T05:48:01.825Z,1.80
2022-09-22T05:49:03.262Z,1.20
2022-09-22T05:50:06.104Z,1.30
2022-09-22T05:51:07.601Z,1.40
2022-09-22T05:52:09.187Z,1.30
2022-09-22T05:53:11.255Z,1.60
2022-09-22T05:54:13.993Z,1.80
2022-09-22T05:55:15.960Z,1.90
2022-09-22T05:56:17.504Z,2.07
2022-09-22T05:57:25.450Z,1.50
2022-09-22T05:58:26.949Z,1.67
2022-09-22T05:59:28.444Z,1.33
2022-09-22T06:00:31.146Z,1.40
2022-09-22T06:01:32.608Z,1.20
2022-09-22T06:02:34.342Z,1.40
2022-09-22T06:03:35.876Z,1.40
2022-09-22T06:04:37.558Z,1.80
2022-09-22T06:05:39.685Z,1.20
2022-09-22T06:06:42.327Z,1.50
2022-09-22T06:07:43.907Z,1.60
2022-09-22T06:08:48.984Z,1.50
2022-09-22T06:09:51.407Z,1.20
2022-09-22T06:10:52.901Z,1.60
2022-09-22T06:11:54.273Z,1.60
2022-09-22T06:13:03.220Z,1.50
2022-09-22T06:14:04.874Z,1.70
2022-09-22T06:15:07.569Z,1.60
2022-09-22T06:16:09.036Z,1.20
2022-09-22T06:17:10.734Z,1.87
2022-09-22T06:18:15.374Z,1.60
2022-09-22T06:19:17.035Z,1.37
2022-09-22T06:20:18.488Z,1.20
2022-09-22T06:21:20.861Z,1.47
2022-09-22T06:22:24.136Z,1.53
2022-09-22T06:23:26.311Z,1.70
2022-09-22T06:24:28.205Z,1.63
2022-09-22T06:25:30.562Z,1.57
2022-09-22T06:26:33.221Z,1.40
2022-09-22T06:27:34.842Z,1.33
2022-09-22T06:28:36.629Z,1.70
2022-09-22T06:29:38.095Z,1.40
2022-09-22T06:30:40.452Z,1.70
2022-09-22T06:31:42.089Z,1.30
2022-09-22T06:32:45.913Z,1.27
2022-09-22T06:33:48.668Z,1.40
2022-09-22T06:34:50.070Z,1.40
2022-09-22T06:35:51.434Z,1.40
2022-09-22T06:36:56.151Z,1.83
2022-09-22T06:37:58.831Z,1.63
2022-09-22T06:39:01.461Z,1.40
2022-09-22T06:40:03.050Z,1.30
2022-09-22T06:41:06.693Z,1.53
2022-09-22T06:42:08.274Z,1.50
2022-09-22T06:43:22.691Z,1.40
2022-09-22T06:44:25.344Z,1.60
2022-09-22T06:45:27.237Z,1.33
2022-09-22T06:46:33.896Z,1.33
2022-09-22T06:47:36.393Z,1.70
2022-09-22T06:48:37.799Z,1.73
2022-09-22T06:49:39.412Z,1.70
2022-09-22T06:50:41.094Z,1.40
2022-09-22T06:51:43.129Z,1.20
2022-09-22T06:52:45.383Z,1.30
2022-09-22T06:53:51.804Z,1.27
2022-09-22T06:54:56.217Z,1.33
2022-09-22T06:56:03.197Z,1.60
2022-09-22T06:57:05.440Z,1.30
2022-09-22T06:58:07.090Z,1.20
2022-09-22T06:59:14.335Z,1.33
2022-09-22T07:00:17.919Z,1.30
2022-09-22T07:01:19.897Z,1.50
2022-09-22T07:02:28.486Z,1.30
2022-09-22T07:03:30.125Z,1.40
2022-09-22T07:04:32.197Z,1.90
2022-09-22T07:05:34.791Z,1.60
2022-09-22T07:06:37.671Z,1.37
2022-09-22T07:07:39.742Z,1.40
2022-09-22T07:08:41.535Z,1.53
2022-09-22T07:09:43.273Z,1.33
2022-09-22T07:10:45.474Z,1.40
2022-09-22T07:11:49.279Z,1.53
2022-09-22T07:12:51.218Z,1.50
2022-09-22T07:13:54.720Z,1.30
2022-09-22T07:14:58.088Z,1.67
2022-09-22T07:16:04.239Z,1.60
2022-09-22T07:17:06.607Z,1.50
2022-09-22T07:18:08.285Z,1.57
2022-09-22T07:19:10.386Z,1.90
2022-09-22T07:20:13.172Z,1.10
2022-09-22T07:21:21.043Z,1.53
2022-09-22T07:22:23.207Z,1.50
2022-09-22T07:23:24.717Z,1.60
2022-09-22T07:24:28.292Z,1.40
2022-09-22T07:25:36.655Z,1.50
2022-09-22T07:26:39.898Z,1.40
2022-09-22T07:27:41.449Z,1.40
2022-09-22T07:28:43.038Z,1.33
2022-09-22T07:29:47.645Z,1.40
2022-09-22T07:30:49.165Z,1.77
2022-09-22T07:31:51.198Z,1.30
2022-09-22T07:32:53.198Z,1.30
2022-09-22T07:33:55.225Z,1.33
2022-09-22T07:34:57.902Z,1.60
2022-09-22T07:36:10.663Z,1.50
2022-09-22T07:37:15.758Z,1.20
2022-09-22T07:38:18.810Z,1.27
2022-09-22T07:39:20.504Z,1.70
2022-09-22T07:40:22.054Z,1.57
2022-09-22T07:41:27.564Z,1.40
2022-09-22T07:42:29.227Z,1.43
2022-09-22T07:43:31.479Z,1.50
2022-09-22T07:44:51.937Z,1.27
2022-09-22T07:45:55.679Z,1.27
2022-09-22T07:46:58.037Z,1.20
2022-09-22T07:48:18.468Z,1.40
2022-09-22T07:49:22.174Z,1.40
2022-09-22T07:50:23.734Z,1.60
2022-09-22T07:51:26.662Z,1.40
2022-09-22T07:52:30.400Z,1.40
2022-09-22T07:53:32.912Z,1.13
2022-09-22T07:54:36.892Z,1.60
2022-09-22T07:55:38.872Z,1.37
2022-09-22T07:56:43.033Z,1.60
2022-09-22T07:57:44.969Z,1.50
2022-09-22T07:58:52.078Z,1.50
2022-09-22T07:59:53.577Z,1.60
2022-09-22T08:00:55.118Z,1.80
2022-09-22T08:01:57.303Z,1.70
2022-09-22T08:02:59.570Z,1.50
2022-09-22T08:04:01.754Z,1.60
2022-09-22T08:05:04.222Z,1.30
2022-09-22T08:06:11.161Z,1.77
2022-09-22T08:07:15.079Z,1.60
2022-09-22T08:08:16.803Z,1.30
2022-09-22T08:09:19.137Z,1.70
2022-09-22T08:10:21.429Z,1.50
2022-09-22T08:11:26.067Z,1.40
2022-09-22T08:12:28.203Z,1.40
2022-09-22T08:13:29.864Z,1.37
2022-09-22T08:14:31.744Z,1.67
2022-09-22T08:15:33.219Z,1.40
2022-09-22T08:16:37.276Z,1.63
2022-09-22T08:17:40.206Z,1.67
2022-09-22T08:18:41.786Z,1.83
2022-09-22T08:19:43.305Z,1.77
2022-09-22T08:20:45.266Z,1.60
2022-09-22T08:21:49.520Z,1.60
2022-09-22T08:22:54.560Z,1.67
2022-09-22T08:23:56.456Z,1.60
2022-09-22T08:24:58.111Z,1.87
2022-09-22T08:26:07.285Z,1.50
2022-09-22T08:27:12.078Z,1.57
2022-09-22T08:28:14.427Z,1.80
2022-09-22T08:29:16.757Z,1.77
2022-09-22T08:30:19.736Z,1.67
2022-09-22T08:31:23.121Z,1.70
2022-09-22T08:32:26.698Z,1.90
2022-09-22T08:33:31.198Z,1.43
2022-09-22T08:34:32.957Z,1.50
2022-09-22T08:35:34.718Z,1.60
2022-09-22T08:36:37.849Z,1.70
2022-09-22T08:37:41.842Z,1.70
2022-09-22T08:38:48.641Z,1.77
2022-09-22T08:39:50.176Z,1.70
2022-09-22T08:41:20.167Z,1.70
2022-09-22T08:42:23.330Z,1.87
2022-09-22T08:43:25.888Z,1.70
2022-09-22T08:45:10.996Z,1.37
2022-09-22T08:46:15.939Z,1.70
2022-09-22T08:47:42.478Z,1.50
2022-09-22T08:49:06.484Z,1.63
2022-09-22T08:50:42.410Z,1.60
2022-09-22T08:51:53.110Z,1.70
2022-09-22T08:52:57.583Z,1.80
2022-09-22T08:54:03.260Z,1.63
2022-09-22T08:55:23.749Z,1.70
2022-09-22T08:56:39.336Z,1.57
2022-09-22T08:58:02.376Z,1.50
2022-09-22T08:59:09.156Z,1.40
2022-09-22T09:00:17.192Z,1.77
2022-09-22T09:01:30.361Z,1.70
2022-09-22T09:02:32.905Z,1.43
2022-09-22T09:03:53.070Z,1.60
2022-09-22T09:05:25.113Z,1.80
2022-09-22T09:06:58.163Z,1.50
2022-09-22T09:08:05.723Z,1.53
2022-09-22T09:09:10.713Z,1.80
2022-09-22T09:10:24.324Z,1.57
2022-09-22T09:11:53.647Z,1.60
2022-09-22T09:13:27.015Z,1.50
2022-09-22T09:14:50.766Z,1.70
2022-09-22T09:16:32.975Z,1.73
2022-09-22T09:17:40.197Z,1.70
2022-09-22T09:18:45.547Z,1.50
2022-09-22T09:20:04.828Z,1.97
2022-09-22T09:21:14.447Z,1.87
2022-09-22T09:22:19.256Z,1.70
2022-09-22T09:26:26.670Z,1.63
2022-09-22T09:27:33.349Z,1.87
2022-09-22T09:28:42.206Z,1.60
2022-09-22T09:30:18.336Z,1.80
2022-09-22T09:31:43.673Z,1.80
2022-09-22T09:32:53.969Z,1.80
2022-09-22T09:34:02.842Z,1.80
2022-09-22T09:35:06.426Z,1.67
2022-09-22T09:36:17.481Z,2.00
2022-09-22T09:37:20.502Z,1.60
2022-09-22T09:38:27.375Z,2.00
2022-09-22T09:39:32.700Z,1.80
2022-09-22T09:40:34.316Z,2.67
2022-09-22T09:41:36.895Z,1.87
2022-09-22T09:42:38.469Z,1.57
2022-09-22T09:43:42.799Z,1.60
2022-09-22T09:44:44.728Z,1.43
2022-09-22T09:46:24.783Z,1.73
2022-09-22T09:47:27.409Z,1.60
2022-09-22T09:48:35.437Z,1.83
2022-09-22T09:49:37.063Z,1.60
2022-09-22T09:50:39.677Z,1.50
2022-09-22T09:51:51.199Z,1.60
2022-09-22T09:52:54.270Z,2.00
2022-09-22T09:53:57.490Z,1.60
2022-09-22T09:55:01.407Z,1.77
2022-09-22T09:56:03.243Z,1.70
2022-09-22T09:57:15.266Z,1.70
2022-09-22T09:58:36.745Z,1.90
2022-09-22T10:00:02.942Z,1.67
2022-09-22T10:01:14.801Z,1.80
2022-09-22T10:02:21.215Z,1.80
2022-09-22T10:03:28.819Z,1.60
2022-09-22T10:04:37.220Z,1.70
2022-09-22T10:05:39.071Z,1.90
2022-09-22T10:06:42.968Z,2.57
2022-09-22T10:07:47.998Z,1.80
2022-09-22T10:08:51.555Z,1.50
2022-09-22T10:09:55.190Z,1.53
2022-09-22T10:10:59.187Z,1.60
2022-09-22T10:12:04.259Z,1.70
2022-09-22T10:13:06.002Z,1.60
2022-09-22T10:14:19.012Z,1.67
2022-09-22T10:15:25.929Z,1.93
2022-09-22T10:16:30.492Z,1.83
2022-09-22T10:17:40.973Z,1.80
2022-09-22T10:18:43.119Z,1.77
2022-09-22T10:19:44.623Z,1.70
2022-09-22T10:20:46.727Z,1.60
2022-09-22T10:21:48.991Z,1.70
2022-09-22T10:22:50.842Z,1.67
2022-09-22T10:23:54.690Z,1.83
2022-09-22T10:25:04.009Z,1.50
2022-09-22T10:26:23.472Z,1.77
2022-09-22T10:27:26.770Z,2.13
2022-09-22T10:28:28.592Z,1.70
2022-09-22T10:29:30.686Z,2.00
2022-09-22T10:30:33.465Z,1.80
2022-09-22T10:31:37.875Z,1.90
2022-09-22T10:32:41.049Z,1.67
2022-09-22T10:34:00.845Z,1.90
2022-09-22T10:35:26.657Z,1.73
2022-09-22T10:36:30.816Z,2.03
2022-09-22T10:37:32.699Z,1.80
2022-09-22T10:39:48.074Z,1.80
2022-09-22T10:41:08.054Z,1.87
2022-09-22T10:42:29.044Z,1.60
2022-09-22T10:43:53.146Z,1.90
2022-09-22T10:45:11.995Z,2.10
2022-09-22T10:46:51.539Z,1.93
2022-09-22T10:48:03.617Z,1.93
2022-09-22T10:49:31.389Z,2.03
2022-09-22T10:51:12.659Z,2.20
2022-09-22T10:52:34.668Z,1.87
2022-09-22T10:53:54.514Z,1.83
2022-09-22T10:55:22.063Z,1.73
2022-09-22T10:56:32.405Z,2.10
2022-09-22T10:57:42.507Z,1.50
2022-09-22T10:58:50.404Z,2.53
2022-09-22T11:00:10.797Z,1.50
2022-09-22T11:01:56.382Z,1.80
2022-09-22T11:03:06.693Z,1.63
2022-09-22T11:04:08.810Z,1.80
2022-09-22T11:05:46.884Z,1.80
2022-09-22T11:07:36.998Z,1.50
2022-09-22T11:09:08.821Z,1.90
2022-09-22T11:10:47.283Z,1.90
2022-09-22T11:12:13.712Z,1.80
2022-09-22T11:13:27.949Z,1.83
2022-09-22T11:14:55.512Z,1.80
2022-09-22T11:16:14.746Z,1.70
2022-09-22T11:17:39.170Z,1.70
2022-09-22T11:19:02.775Z,1.77
2022-09-22T11:20:28.437Z,2.03
2022-09-22T11:22:00.483Z,2.00
2022-09-22T11:23:41.168Z,1.70
2022-09-22T11:25:07.408Z,1.90
2022-09-22T11:26:30.255Z,2.30
2022-09-22T11:27:51.405Z,2.10
2022-09-22T11:29:15.700Z,2.10
2022-09-22T11:30:22.934Z,2.00
2022-09-22T11:31:48.554Z,2.70
2022-09-22T11:32:56.296Z,1.90
2022-09-22T11:34:00.689Z,2.10
2022-09-22T11:35:14.408Z,2.10
2022-09-22T11:36:33.975Z,2.10
2022-09-22T11:38:02.306Z,2.10
2022-09-22T11:39:33.934Z,1.90
2022-09-22T11:40:59.679Z,2.03
2022-09-22T11:42:32.904Z,2.10
2022-09-22T11:43:47.707Z,2.10
2022-09-22T11:45:07.751Z,2.07
2022-09-22T11:46:18.862Z,2.10
2022-09-22T11:47:38.520Z,2.10
2022-09-22T11:48:54.809Z,1.90
2022-09-22T11:50:17.695Z,2.03
2022-09-22T11:51:41.725Z,1.70
2022-09-22T11:53:16.663Z,1.90
2022-09-22T11:54:44.983Z,2.23
2022-09-22T11:56:15.500Z,2.10
2022-09-22T11:57:23.537Z,1.80
2022-09-22T11:58:29.533Z,2.10
2022-09-22T11:59:52.196Z,1.87
2022-09-22T12:01:25.797Z,1.57
2022-09-22T12:02:40.069Z,1.90
2022-09-22T12:03:49.350Z,1.90
2022-09-22T12:05:00.978Z,2.27
2022-09-22T12:06:05.919Z,2.30
2022-09-22T12:07:16.309Z,1.87
2022-09-22T12:08:25.988Z,2.03
2022-09-22T12:09:47.616Z,1.87
2022-09-22T12:10:50.315Z,1.97
2022-09-22T12:11:55.112Z,1.90
2022-09-22T12:12:57.168Z,2.53
2022-09-22T12:14:00.945Z,2.10
2022-09-22T12:15:20.562Z,2.20
2022-09-22T12:16:31.718Z,2.27
2022-09-22T12:17:58.428Z,1.90
2022-09-22T12:19:38.685Z,2.17
2022-09-22T12:21:22.824Z,2.20
2022-09-22T12:22:51.131Z,1.97
2022-09-22T12:23:54.033Z,2.00
2022-09-22T12:24:55.507Z,1.80
2022-09-22T12:25:59.865Z,1.80
2022-09-22T12:27:11.480Z,1.90
2022-09-22T12:28:23.185Z,2.00
2022-09-22T12:29:30.390Z,2.03
2022-09-22T12:30:31.954Z,2.00
2022-09-22T12:31:36.431Z,2.20
2022-09-22T12:32:41.792Z,1.83
2022-09-22T12:33:55.380Z,1.93
2022-09-22T12:34:58.488Z,1.73
2022-09-22T12:36:01.296Z,2.13
2022-09-22T12:37:19.918Z,1.90
2022-09-22T12:38:22.642Z,2.20
2022-09-22T12:39:30.807Z,2.10
2022-09-22T12:40:41.657Z,2.10
2022-09-22T12:41:57.634Z,2.00
2022-09-22T12:42:59.771Z,1.80
2022-09-22T12:44:12.775Z,1.80
2022-09-22T12:45:14.352Z,1.80
2022-09-22T12:46:25.823Z,2.00
2022-09-22T12:47:39.400Z,1.90
2022-09-22T12:48:45.792Z,2.10
2022-09-22T12:49:58.904Z,2.20
2022-09-22T12:51:25.049Z,2.13
2022-09-22T12:52:41.583Z,2.00
2022-09-22T12:53:44.004Z,2.20
2022-09-22T12:54:46.964Z,2.63
2022-09-22T12:55:55.650Z,1.97
2022-09-22T12:57:09.542Z,2.20
2022-09-22T12:58:23.799Z,1.90
2022-09-22T12:59:43.089Z,2.07
2022-09-22T13:00:45.142Z,2.00
2022-09-22T13:02:08.370Z,2.00
2022-09-22T13:03:25.316Z,2.07
2022-09-22T13:04:26.962Z,2.03
2022-09-22T13:05:28.524Z,1.80
2022-09-22T13:06:29.977Z,2.07
2022-09-22T13:07:38.455Z,2.27
2022-09-22T13:08:40.217Z,1.90
2022-09-22T13:09:41.690Z,1.77
2022-09-22T13:10:51.893Z,2.00
2022-09-22T13:12:12.895Z,1.97
2022-09-22T13:13:31.179Z,1.87
2022-09-22T13:14:54.284Z,2.10
2022-09-22T13:16:02.036Z,2.20
2022-09-22T13:17:41.358Z,2.20
2022-09-22T13:18:46.525Z,2.00
2022-09-22T13:19:55.950Z,2.13
2022-09-22T13:20:58.351Z,2.00
2022-09-22T13:22:17.721Z,2.20
2022-09-22T13:23:19.396Z,2.20
2022-09-22T13:24:26.446Z,2.20
2022-09-22T13:25:31.191Z,2.37
2022-09-22T13:26:34.853Z,2.00
2022-09-22T13:27:36.953Z,1.87
2022-09-22T13:28:38.543Z,2.07
2022-09-22T13:29:40.080Z,2.00
2022-09-22T13:30:43.640Z,2.30
2022-09-22T13:31:55.438Z,1.87
2022-09-22T13:32:57.201Z,1.90
2022-09-22T13:33:58.659Z,2.20
2022-09-22T13:35:00.091Z,1.80
2022-09-22T13:36:05.989Z,1.97
2022-09-22T13:37:13.287Z,2.30
2022-09-22T13:38:15.281Z,2.40
2022-09-22T13:39:20.862Z,2.20
2022-09-22T13:40:27.190Z,1.67
2022-09-22T13:41:33.298Z,1.80
2022-09-22T13:42:35.203Z,2.03
2022-09-22T13:43:39.904Z,2.00
2022-09-22T13:44:47.081Z,2.00
2022-09-22T13:45:48.856Z,2.30
2022-09-22T13:46:50.782Z,2.10
2022-09-22T13:47:56.808Z,1.90
2022-09-22T13:48:59.454Z,2.27
2022-09-22T13:50:12.809Z,1.80
2022-09-22T13:51:15.831Z,2.00
2022-09-22T13:52:23.228Z,1.97
2022-09-22T13:53:24.929Z,1.97
2022-09-22T13:54:30.343Z,2.30
2022-09-22T13:55:37.329Z,2.20
2022-09-22T13:56:39.050Z,2.00
2022-09-22T13:57:41.623Z,2.30
2022-09-22T13:58:45.512Z,2.47
2022-09-22T13:59:47.027Z,2.07
2022-09-22T14:01:12.710Z,2.40
2022-09-22T14:02:29.481Z,2.33
2022-09-22T14:03:37.715Z,1.93
2022-09-22T14:04:52.389Z,2.17
2022-09-22T14:05:54.455Z,2.30
2022-09-22T14:07:00.850Z,2.30
2022-09-22T14:08:14.397Z,2.33
2022-09-22T14:09:19.069Z,2.30
2022-09-22T14:10:21.850Z,2.43
2022-09-22T14:11:27.004Z,2.07
2022-09-22T14:12:29.616Z,2.10
2022-09-22T14:13:53.069Z,2.07
2022-09-22T14:14:54.496Z,2.30
2022-09-22T14:15:56.197Z,2.10
2022-09-22T14:17:06.158Z,2.07
2022-09-22T14:18:26.398Z,2.00
2022-09-22T14:19:34.045Z,2.30
2022-09-22T14:20:40.472Z,2.10
2022-09-22T14:21:48.199Z,2.10
2022-09-22T14:22:49.806Z,2.30
2022-09-22T14:23:52.083Z,2.17
2022-09-22T14:24:58.598Z,2.20
2022-09-22T14:26:03.887Z,2.00
2022-09-22T14:27:07.955Z,2.33
2022-09-22T14:28:21.035Z,2.10
2022-09-22T14:29:40.725Z,2.17
2022-09-22T14:30:43.235Z,2.03
2022-09-22T14:31:48.749Z,2.20
2022-09-22T14:33:01.174Z,2.40
2022-09-22T14:34:04.021Z,1.90
2022-09-22T14:35:15.911Z,2.37
2022-09-22T14:36:20.922Z,1.93
2022-09-22T14:37:28.122Z,2.00
2022-09-22T14:38:34.751Z,2.00
2022-09-22T14:39:40.349Z,2.00
2022-09-22T14:40:55.052Z,2.10
2022-09-22T14:42:00.148Z,2.20
2022-09-22T14:43:05.611Z,2.30
2022-09-22T14:44:33.746Z,1.90
2022-09-22T14:45:37.114Z,2.07
2022-09-22T14:46:41.712Z,1.90
2022-09-22T14:47:43.389Z,2.10
2022-09-22T14:48:45.593Z,1.90
2022-09-22T14:49:48.383Z,2.10
2022-09-22T14:50:58.512Z,2.17
2022-09-22T14:52:00.608Z,1.77
2022-09-22T14:53:08.156Z,2.13
2022-09-22T14:54:15.557Z,2.27
2022-09-22T14:55:41.665Z,1.90
2022-09-22T14:56:44.258Z,1.80
2022-09-22T14:57:49.647Z,2.00
2022-09-22T14:58:53.136Z,2.00
2022-09-22T15:00:17.026Z,1.70
2022-09-22T15:01:41.549Z,1.67
2022-09-22T15:02:49.593Z,1.83
2022-09-22T15:04:01.216Z,2.03
2022-09-22T15:05:04.266Z,1.70
2022-09-22T15:06:11.972Z,1.77